National Weather Service Raw Text Product

Displaying AFOS PIL: TAFALO Received: 2018-03-08 05:25 UTC


084 
FTUS43 KDMX 080525
TAFALO
TAF
KALO 080525Z 0806/0906 30008KT P6SM FEW250
     FM090000 VRB03KT P6SM SCT250=